Time;durP1;ratioP1;P1;durP2;ratioP2;P2;SDS_P1;SDS_P2;PMS_P1;PMS_P2;Temp;Humidity;BMP_temperature;BMP_pressure;BME280_temperature;BME280_humidity;BME280_pressure;Samples;Min_cycle;Max_cycle;Signal;HPM_P1;HPM_P2
2022/06/02 00:02:32;;;;;;;;;;;26.00;37.10;;;;;;5075869;28;1116;-45
2022/06/02 00:05:03;;;;;;;;;;;26.00;37.10;;;;;;5096406;28;1002;-44
2022/06/02 00:07:35;;;;;;;;;;;26.00;37.20;;;;;;5095939;28;994;-45
2022/06/02 00:10:04;;;;;;;;;;;26.00;37.20;;;;;;5098532;28;999;-45
2022/06/02 00:12:33;;;;;;;;;;;26.00;37.10;;;;;;5097798;28;1182;-45
2022/06/02 00:15:07;;;;;;;;;;;26.00;37.20;;;;;;5098018;28;1905;-45
2022/06/02 00:17:41;;;;;;;;;;;26.00;37.10;;;;;;5098452;28;1001;-45
2022/06/02 00:20:10;;;;;;;;;;;26.00;37.10;;;;;;5097279;28;977;-45
2022/06/02 00:22:42;;;;;;;;;;;26.00;37.00;;;;;;5098080;28;1000;-45
2022/06/02 00:25:11;;;;;;;;;;;26.00;37.20;;;;;;5098257;28;1015;-45
2022/06/02 00:27:46;;;;;;;;;;;26.00;37.20;;;;;;5097627;28;1003;-45
2022/06/02 00:30:18;;;;;;;;;;;26.00;37.10;;;;;;5097869;28;976;-45
2022/06/02 00:32:51;;;;;;;;;;;26.00;37.20;;;;;;5098232;28;1042;-45
2022/06/02 00:35:24;;;;;;;;;;;26.00;37.30;;;;;;5096871;28;1981;-45
2022/06/02 00:37:53;;;;;;;;;;;25.90;37.20;;;;;;5097484;28;987;-42
2022/06/02 00:40:20;;;;;;;;;;;26.00;37.20;;;;;;5097334;28;953;-45
2022/06/02 00:42:54;;;;;;;;;;;25.90;37.20;;;;;;5097330;28;976;-45
2022/06/02 00:45:21;;;;;;;;;;;26.00;37.10;;;;;;5097953;28;1038;-45
2022/06/02 00:47:52;;;;;;;;;;;26.00;37.20;;;;;;5097973;28;945;-45
2022/06/02 00:50:31;;;;;;;;;;;26.00;37.20;;;;;;5098256;28;1027;-45
2022/06/02 00:53:00;;;;;;;;;;;26.00;37.10;;;;;;5098488;28;956;-45
2022/06/02 00:58:28;;;;;;;;;;;25.90;37.00;;;;;;5097149;28;1005;-45
2022/06/02 01:01:00;;;;;;;;;;;25.90;37.10;;;;;;5097205;28;979;-45
2022/06/02 01:03:34;;;;;;;;;;;25.90;37.10;;;;;;5098060;28;1043;-45
2022/06/02 01:06:07;;;;;;;;;;;25.90;37.10;;;;;;5097421;28;948;-45
2022/06/02 01:08:45;;;;;;;;;;;25.90;37.20;;;;;;5097942;28;950;-45
2022/06/02 01:11:15;;;;;;;;;;;26.00;37.20;;;;;;5098542;28;996;-45
2022/06/02 01:13:51;;;;;;;;;;;25.90;37.20;;;;;;5098001;28;1969;-45
2022/06/02 01:16:20;;;;;;;;;;;26.00;37.20;;;;;;5098275;28;991;-45
2022/06/02 01:18:55;;;;;;;;;;;25.90;37.10;;;;;;5097905;28;1045;-45
2022/06/02 01:21:33;;;;;;;;;;;25.90;37.10;;;;;;5097958;28;1461;-45
2022/06/02 01:24:19;;;;;;;;;;;25.90;37.10;;;;;;5098148;28;989;-45
2022/06/02 01:26:57;;;;;;;;;;;25.90;37.20;;;;;;5097658;28;992;-45
2022/06/02 01:29:40;;;;;;;;;;;25.90;37.10;;;;;;5097938;28;992;-45
2022/06/02 01:32:10;;;;;;;;;;;25.90;37.20;;;;;;5097995;28;1000;-45
2022/06/02 01:34:44;;;;;;;;;;;25.90;37.20;;;;;;5097626;28;1902;-45
2022/06/02 01:37:14;;;;;;;;;;;25.90;37.20;;;;;;5096533;28;1020;-45
2022/06/02 01:39:53;;;;;;;;;;;25.90;37.10;;;;;;5097019;28;944;-45
2022/06/02 01:42:26;;;;;;;;;;;25.80;37.10;;;;;;5097692;28;992;-45
2022/06/02 01:44:58;;;;;;;;;;;25.90;37.10;;;;;;5097506;28;2025;-45
2022/06/02 01:47:32;;;;;;;;;;;25.90;37.10;;;;;;5097887;28;992;-45
2022/06/02 01:50:06;;;;;;;;;;;25.90;37.10;;;;;;5098101;28;1011;-45
2022/06/02 01:52:42;;;;;;;;;;;25.90;37.00;;;;;;5097420;28;980;-45
2022/06/02 01:55:16;;;;;;;;;;;25.90;37.00;;;;;;5097578;28;1909;-45
2022/06/02 01:57:49;;;;;;;;;;;25.90;37.10;;;;;;5096941;28;1008;-45
2022/06/02 02:00:18;;;;;;;;;;;25.90;37.10;;;;;;5098106;28;943;-46
2022/06/02 02:02:57;;;;;;;;;;;25.90;37.10;;;;;;5100934;28;1040;-46
2022/06/02 02:05:36;;;;;;;;;;;25.80;37.10;;;;;;5100734;28;1030;-46
2022/06/02 02:08:24;;;;;;;;;;;25.90;37.10;;;;;;5101181;28;1888;-46
2022/06/02 02:10:58;;;;;;;;;;;25.80;36.90;;;;;;5094064;28;1403;-46
2022/06/02 02:13:28;;;;;;;;;;;25.80;37.10;;;;;;5101182;28;1093;-46
2022/06/02 02:15:59;;;;;;;;;;;25.80;37.10;;;;;;5100205;28;1983;-46
2022/06/02 02:18:38;;;;;;;;;;;25.80;37.10;;;;;;5101404;28;1427;-46
2022/06/02 02:21:14;;;;;;;;;;;25.90;37.10;;;;;;5101231;28;991;-46
2022/06/02 02:24:03;;;;;;;;;;;25.80;37.00;;;;;;5101878;28;1035;-46
2022/06/02 02:26:33;;;;;;;;;;;25.80;37.10;;;;;;5101062;28;968;-45
2022/06/02 02:29:04;;;;;;;;;;;25.80;37.10;;;;;;5101010;28;1003;-46
2022/06/02 02:31:37;;;;;;;;;;;25.80;37.10;;;;;;5100478;28;976;-46
2022/06/02 02:34:11;;;;;;;;;;;25.80;37.10;;;;;;5100651;28;1007;-45
2022/06/02 02:36:42;;;;;;;;;;;25.80;37.10;;;;;;5098689;28;932;-46
2022/06/02 02:39:12;;;;;;;;;;;25.80;37.10;;;;;;5099600;28;1246;-46
2022/06/02 02:41:43;;;;;;;;;;;25.80;37.10;;;;;;5099961;28;1007;-46
2022/06/02 02:44:13;;;;;;;;;;;25.80;37.10;;;;;;5099744;28;972;-46
2022/06/02 02:46:46;;;;;;;;;;;25.80;37.10;;;;;;5099161;28;869;-46
2022/06/02 02:49:17;;;;;;;;;;;25.80;37.10;;;;;;5099368;28;988;-46
2022/06/02 02:51:48;;;;;;;;;;;25.80;37.10;;;;;;5098904;28;920;-46
2022/06/02 02:54:21;;;;;;;;;;;25.80;37.10;;;;;;5099524;28;1983;-46
2022/06/02 02:56:50;;;;;;;;;;;25.80;37.10;;;;;;5098905;28;944;-46
2022/06/02 02:59:20;;;;;;;;;;;25.80;37.00;;;;;;5098984;28;980;-45
2022/06/02 03:01:51;;;;;;;;;;;25.80;37.00;;;;;;5099249;28;947;-46
2022/06/02 03:04:28;;;;;;;;;;;25.80;37.10;;;;;;5099999;28;956;-46
2022/06/02 03:06:55;;;;;;;;;;;25.80;37.10;;;;;;5099279;28;999;-46
2022/06/02 03:09:24;;;;;;;;;;;25.80;37.00;;;;;;5099047;28;956;-46
2022/06/02 03:12:00;;;;;;;;;;;25.80;37.10;;;;;;5099355;28;1004;-46
2022/06/02 03:14:34;;;;;;;;;;;25.80;37.10;;;;;;5099830;28;1981;-46
2022/06/02 03:17:04;;;;;;;;;;;25.80;37.10;;;;;;5100224;28;945;-46
2022/06/02 03:19:37;;;;;;;;;;;25.70;37.00;;;;;;5100121;28;895;-46
2022/06/02 03:22:09;;;;;;;;;;;25.70;37.10;;;;;;5099885;28;945;-46
2022/06/02 03:24:48;;;;;;;;;;;25.80;37.00;;;;;;5099617;28;1776;-46
2022/06/02 03:27:20;;;;;;;;;;;25.80;37.00;;;;;;5099110;28;976;-46
2022/06/02 03:29:57;;;;;;;;;;;25.80;37.00;;;;;;5098898;28;1025;-46
2022/06/02 03:32:33;;;;;;;;;;;25.80;37.00;;;;;;5098686;28;980;-46
2022/06/02 03:35:05;;;;;;;;;;;25.80;37.00;;;;;;5097728;28;1905;-45
2022/06/02 03:37:42;;;;;;;;;;;25.70;37.00;;;;;;5097742;28;1010;-45
2022/06/02 03:40:19;;;;;;;;;;;25.80;37.00;;;;;;5097905;28;952;-46
2022/06/02 03:42:49;;;;;;;;;;;25.80;37.10;;;;;;5097948;28;1020;-46
2022/06/02 03:45:26;;;;;;;;;;;25.70;37.00;;;;;;5097946;28;881;-44
2022/06/02 03:48:03;;;;;;;;;;;25.70;38.10;;;;;;5097916;28;1019;-46
2022/06/02 03:50:49;;;;;;;;;;;25.70;37.00;;;;;;5097725;28;1380;-46
2022/06/02 03:53:26;;;;;;;;;;;25.80;37.00;;;;;;5097839;28;1011;-46
2022/06/02 03:55:58;;;;;;;;;;;25.80;37.00;;;;;;5097563;28;1905;-46
2022/06/02 03:58:35;;;;;;;;;;;25.70;36.90;;;;;;5097406;28;1016;-46
2022/06/02 04:01:03;;;;;;;;;;;25.70;36.90;;;;;;5097004;28;1019;-46
2022/06/02 04:03:37;;;;;;;;;;;25.70;36.90;;;;;;5097375;28;1024;-46
2022/06/02 04:06:10;;;;;;;;;;;25.70;36.90;;;;;;5096446;28;944;-46
2022/06/02 04:08:44;;;;;;;;;;;25.70;36.90;;;;;;5096349;28;924;-46
2022/06/02 04:11:20;;;;;;;;;;;25.70;36.90;;;;;;5096449;28;869;-46
2022/06/02 04:13:53;;;;;;;;;;;25.70;37.00;;;;;;5095497;28;1143;-46
2022/06/02 04:16:37;;;;;;;;;;;25.70;37.00;;;;;;5095839;28;1918;-46
2022/06/02 04:22:10;;;;;;;;;;;25.70;36.90;;;;;;5095188;28;659;-46
2022/06/02 04:24:40;;;;;;;;;;;25.70;37.00;;;;;;5094742;28;1079;-46
2022/06/02 04:27:12;;;;;;;;;;;25.70;37.00;;;;;;5095750;28;1789;-46
2022/06/02 04:30:03;;;;;;;;;;;25.70;37.00;;;;;;5096714;28;982;-46
2022/06/02 04:32:35;;;;;;;;;;;25.70;37.00;;;;;;5076009;28;1301;-46
2022/06/02 04:35:08;;;;;;;;;;;25.70;37.00;;;;;;5095906;28;1902;-45
2022/06/02 04:37:39;;;;;;;;;;;25.70;37.00;;;;;;5095077;28;1035;-46
2022/06/02 04:40:10;;;;;;;;;;;25.70;37.00;;;;;;5096408;28;939;-46
2022/06/02 04:42:42;;;;;;;;;;;25.70;37.00;;;;;;5094756;28;869;-46
2022/06/02 04:45:12;;;;;;;;;;;25.70;37.00;;;;;;5094404;28;1006;-46
2022/06/02 04:47:48;;;;;;;;;;;25.70;36.90;;;;;;5094886;28;951;-46
2022/06/02 04:50:19;;;;;;;;;;;25.70;37.00;;;;;;5093773;28;913;-46
2022/06/02 04:52:53;;;;;;;;;;;25.60;36.90;;;;;;5094632;28;1012;-46
2022/06/02 04:55:24;;;;;;;;;;;25.60;37.00;;;;;;5093527;28;1910;-46
2022/06/02 04:57:58;;;;;;;;;;;25.60;37.00;;;;;;5094040;28;1008;-46
2022/06/02 05:00:30;;;;;;;;;;;25.70;37.10;;;;;;5092571;28;928;-46
2022/06/02 05:03:05;;;;;;;;;;;25.70;37.00;;;;;;5093396;28;1044;-45
2022/06/02 05:05:35;;;;;;;;;;;25.60;36.90;;;;;;5093496;28;948;-46
2022/06/02 05:08:30;;;;;;;;;;;25.60;37.00;;;;;;5093475;28;1015;-46
2022/06/02 05:11:05;;;;;;;;;;;25.60;37.00;;;;;;5046240;28;1047;-46
2022/06/02 05:13:35;;;;;;;;;;;25.60;37.00;;;;;;5092661;28;1104;-45
2022/06/02 05:16:09;;;;;;;;;;;25.70;37.00;;;;;;5092574;28;1898;-46
2022/06/02 05:18:49;;;;;;;;;;;25.70;37.00;;;;;;5092684;28;1015;-46
2022/06/02 05:21:28;;;;;;;;;;;25.70;36.90;;;;;;5092128;28;937;-46
2022/06/02 05:24:04;;;;;;;;;;;25.60;37.00;;;;;;5092531;28;864;-46
2022/06/02 05:26:46;;;;;;;;;;;25.70;37.00;;;;;;5092459;28;988;-45
2022/06/02 05:29:31;;;;;;;;;;;25.70;36.90;;;;;;5075622;28;1178;-46
2022/06/02 05:32:16;;;;;;;;;;;25.70;37.00;;;;;;5092688;28;959;-46
2022/06/02 05:35:04;;;;;;;;;;;25.70;37.10;;;;;;5093563;28;1146;-46
2022/06/02 05:37:48;;;;;;;;;;;25.70;37.00;;;;;;5063235;28;1168;-46
2022/06/02 05:40:20;;;;;;;;;;;25.70;37.00;;;;;;5097283;28;1635;-46
2022/06/02 05:42:54;;;;;;;;;;;25.70;37.10;;;;;;5099581;28;1002;-46
2022/06/02 05:45:37;;;;;;;;;;;25.70;37.10;;;;;;5099381;28;1126;-46
2022/06/02 05:48:12;;;;;;;;;;;25.70;37.10;;;;;;5097204;28;1021;-46
2022/06/02 05:50:44;;;;;;;;;;;25.70;37.00;;;;;;5101126;28;1021;-46
2022/06/02 05:53:17;;;;;;;;;;;25.70;37.10;;;;;;5098067;28;996;-46
2022/06/02 05:55:52;;;;;;;;;;;25.70;37.00;;;;;;5098889;28;1977;-46
2022/06/02 05:58:32;;;;;;;;;;;25.80;37.20;;;;;;5097675;28;1013;-46
2022/06/02 06:01:04;;;;;;;;;;;25.70;38.30;;;;;;5098021;28;940;-46
2022/06/02 06:03:49;;;;;;;;;;;25.70;37.10;;;;;;5097965;28;1154;-45
2022/06/02 06:06:25;;;;;;;;;;;25.70;37.10;;;;;;5098000;28;984;-46
2022/06/02 06:09:01;;;;;;;;;;;25.80;36.80;;;;;;5098479;28;1049;-45
2022/06/02 06:11:35;;;;;;;;;;;25.80;37.00;;;;;;5097340;28;844;-46
2022/06/02 06:14:14;;;;;;;;;;;25.80;37.10;;;;;;5097416;28;1126;-46
2022/06/02 06:16:44;;;;;;;;;;;25.80;37.10;;;;;;5097637;28;1905;-46
2022/06/02 06:19:17;;;;;;;;;;;25.80;37.20;;;;;;5096074;28;959;-46
2022/06/02 06:21:50;;;;;;;;;;;25.80;37.20;;;;;;5097100;28;1016;-46
2022/06/02 06:24:31;;;;;;;;;;;25.80;37.10;;;;;;5096551;28;984;-47
2022/06/02 06:27:01;;;;;;;;;;;25.80;37.10;;;;;;5092909;28;1516;-46
2022/06/02 06:29:35;;;;;;;;;;;25.80;37.10;;;;;;5096250;28;965;-46
2022/06/02 06:32:13;;;;;;;;;;;25.80;37.10;;;;;;5097392;28;908;-48
2022/06/02 06:34:45;;;;;;;;;;;25.90;36.80;;;;;;5096546;28;939;-42
2022/06/02 06:37:39;;;;;;;;;;;25.90;36.80;;;;;;5096184;28;1969;-43
2022/06/02 06:40:11;;;;;;;;;;;25.90;36.90;;;;;;5097253;28;1002;-43
2022/06/02 06:42:49;;;;;;;;;;;25.90;37.00;;;;;;5097080;28;1011;-43
2022/06/02 06:45:18;;;;;;;;;;;25.90;37.00;;;;;;5098740;28;938;-42
2022/06/02 06:47:47;;;;;;;;;;;25.80;37.00;;;;;;5098774;28;1067;-42
2022/06/02 06:50:18;;;;;;;;;;;25.90;37.50;;;;;;5097942;28;940;-40
2022/06/02 06:52:54;;;;;;;;;;;25.90;37.40;;;;;;5098770;28;1003;-40
2022/06/02 06:55:30;;;;;;;;;;;25.80;37.50;;;;;;5097326;28;912;-39
2022/06/02 06:58:03;;;;;;;;;;;25.80;37.50;;;;;;5098545;28;1020;-44
2022/06/02 07:00:35;;;;;;;;;;;25.90;38.40;;;;;;5096966;28;952;-45
2022/06/02 07:03:08;;;;;;;;;;;26.00;37.40;;;;;;5096608;28;1017;-44
2022/06/02 07:05:37;;;;;;;;;;;25.90;37.60;;;;;;5096074;28;1027;-45
2022/06/02 07:08:10;;;;;;;;;;;25.90;37.80;;;;;;5096577;28;1004;-45
2022/06/02 07:10:41;;;;;;;;;;;25.80;37.70;;;;;;5097061;28;886;-44
2022/06/02 07:13:13;;;;;;;;;;;25.80;37.70;;;;;;5097227;28;1210;-45
2022/06/02 07:15:44;;;;;;;;;;;25.80;37.70;;;;;;5096120;28;1910;-45
2022/06/02 07:18:20;;;;;;;;;;;25.90;37.70;;;;;;5097223;28;1008;-44
2022/06/02 07:20:51;;;;;;;;;;;25.90;37.70;;;;;;5095968;28;1030;-44
2022/06/02 07:23:24;;;;;;;;;;;25.90;37.70;;;;;;5096054;28;984;-44
2022/06/02 07:25:58;;;;;;;;;;;25.90;37.70;;;;;;5095459;28;1106;-44
2022/06/02 07:28:31;;;;;;;;;;;25.90;37.70;;;;;;5096620;28;1032;-45
2022/06/02 07:31:06;;;;;;;;;;;25.90;37.80;;;;;;5097435;28;909;-44
2022/06/02 07:33:47;;;;;;;;;;;25.90;37.80;;;;;;5095489;28;1015;-44
2022/06/02 07:36:35;;;;;;;;;;;25.80;37.70;;;;;;5094565;28;1910;-45
2022/06/02 07:39:20;;;;;;;;;;;25.90;37.80;;;;;;5095373;28;984;-44
2022/06/02 07:42:07;;;;;;;;;;;25.90;37.80;;;;;;5096263;28;940;-44
2022/06/02 07:44:46;;;;;;;;;;;25.90;37.80;;;;;;5095121;28;1226;-44
2022/06/02 07:47:26;;;;;;;;;;;25.90;37.70;;;;;;5095493;28;945;-44
2022/06/02 07:50:01;;;;;;;;;;;25.90;37.80;;;;;;5094478;28;1012;-44
2022/06/02 07:52:32;;;;;;;;;;;25.90;37.90;;;;;;5095371;28;947;-44
2022/06/02 07:55:03;;;;;;;;;;;25.90;37.80;;;;;;5094536;28;932;-43
2022/06/02 07:57:38;;;;;;;;;;;25.90;37.70;;;;;;5092959;28;1996;-45
2022/06/02 08:00:10;;;;;;;;;;;25.90;37.80;;;;;;5095381;28;732;-43
2022/06/02 08:02:49;;;;;;;;;;;25.90;37.80;;;;;;5095422;28;1000;-44
2022/06/02 08:05:23;;;;;;;;;;;25.90;37.70;;;;;;5094402;28;989;-44
2022/06/02 08:07:52;;;;;;;;;;;25.80;37.70;;;;;;5093294;28;968;-45
2022/06/02 08:10:23;;;;;;;;;;;25.90;37.80;;;;;;5094983;28;873;-45
2022/06/02 08:12:56;;;;;;;;;;;25.90;37.90;;;;;;5093917;28;1047;-44
2022/06/02 08:15:38;;;;;;;;;;;25.90;37.90;;;;;;5094665;28;1024;-43
2022/06/02 08:18:10;;;;;;;;;;;25.90;37.80;;;;;;5094892;28;1905;-45
2022/06/02 08:20:43;;;;;;;;;;;25.80;37.80;;;;;;5094830;28;916;-45
2022/06/02 08:23:13;;;;;;;;;;;25.90;37.80;;;;;;5094216;28;994;-44
2022/06/02 08:25:44;;;;;;;;;;;25.80;37.80;;;;;;5095804;28;947;-45
2022/06/02 08:28:28;;;;;;;;;;;25.90;37.80;;;;;;5094513;28;979;-45
2022/06/02 08:31:01;;;;;;;;;;;25.90;37.90;;;;;;5093807;28;1436;-45
2022/06/02 08:33:37;;;;;;;;;;;25.90;37.80;;;;;;5093396;28;1026;-45
2022/06/02 08:36:10;;;;;;;;;;;25.80;37.80;;;;;;5094773;28;1986;-44
2022/06/02 08:38:57;;;;;;;;;;;25.80;39.00;;;;;;5093917;28;944;-44
2022/06/02 08:41:48;;;;;;;;;;;25.80;37.80;;;;;;5086909;28;1257;-45
2022/06/02 08:44:48;;;;;;;;;;;25.80;37.90;;;;;;5068117;28;1624;-44
2022/06/02 08:47:30;;;;;;;;;;;25.90;37.90;;;;;;5011149;28;922;-44
2022/06/02 08:50:14;;;;;;;;;;;25.90;37.90;;;;;;5011321;28;1006;-44
2022/06/02 08:52:58;;;;;;;;;;;25.90;39.00;;;;;;5064961;28;1201;-44
2022/06/02 08:55:44;;;;;;;;;;;25.90;37.90;;;;;;5092764;28;1011;-45
2022/06/02 08:58:32;;;;;;;;;;;25.90;37.80;;;;;;5094024;28;1901;-45
2022/06/02 09:01:05;;;;;;;;;;;25.90;37.90;;;;;;5085661;28;1060;-44
2022/06/02 09:03:55;;;;;;;;;;;25.90;37.90;;;;;;5092429;28;992;-44
2022/06/02 09:06:38;;;;;;;;;;;25.90;37.80;;;;;;5092230;28;845;-45
2022/06/02 09:09:29;;;;;;;;;;;25.90;37.90;;;;;;5090584;28;928;-45
2022/06/02 09:12:29;;;;;;;;;;;25.90;37.80;;;;;;5092460;28;872;-45
2022/06/02 09:15:18;;;;;;;;;;;25.90;37.80;;;;;;5010546;28;1204;-44
2022/06/02 09:17:47;;;;;;;;;;;25.90;37.80;;;;;;5010425;28;1898;-42
2022/06/02 09:20:26;;;;;;;;;;;25.90;37.80;;;;;;5060231;28;989;-44
2022/06/02 09:23:03;;;;;;;;;;;25.90;37.60;;;;;;5092261;28;896;-44
2022/06/02 09:25:35;;;;;;;;;;;25.90;37.70;;;;;;5092912;28;983;-44
2022/06/02 09:28:17;;;;;;;;;;;25.90;37.60;;;;;;5092248;28;1515;-44
2022/06/02 09:30:54;;;;;;;;;;;25.90;37.60;;;;;;5092923;28;991;-46
2022/06/02 09:33:37;;;;;;;;;;;25.90;37.80;;;;;;5093381;28;939;-44
2022/06/02 09:36:11;;;;;;;;;;;25.90;37.80;;;;;;5092428;28;936;-43
2022/06/02 09:38:46;;;;;;;;;;;25.90;37.90;;;;;;5093907;28;1971;-44
2022/06/02 09:41:20;;;;;;;;;;;25.90;37.90;;;;;;5093355;28;928;-44
2022/06/02 09:44:02;;;;;;;;;;;25.90;37.90;;;;;;5091510;28;1144;-44
2022/06/02 09:46:48;;;;;;;;;;;25.90;37.90;;;;;;5092108;28;948;-44
2022/06/02 09:49:28;;;;;;;;;;;25.90;37.90;;;;;;5091558;28;985;-44
2022/06/02 09:51:58;;;;;;;;;;;25.90;37.80;;;;;;5092485;28;1865;-46
2022/06/02 09:54:34;;;;;;;;;;;25.90;37.90;;;;;;5092948;28;932;-46
2022/06/02 10:00:04;;;;;;;;;;;25.90;37.80;;;;;;5092207;28;1327;-44
2022/06/02 10:02:35;;;;;;;;;;;25.90;37.50;;;;;;5093273;28;1040;-44
2022/06/02 10:05:18;;;;;;;;;;;25.90;37.50;;;;;;5094099;28;996;-44
2022/06/02 10:07:52;;;;;;;;;;;25.90;37.50;;;;;;5092027;28;1218;-44
2022/06/02 10:10:24;;;;;;;;;;;26.00;37.60;;;;;;5092514;28;940;-44
2022/06/02 10:13:12;;;;;;;;;;;25.90;37.40;;;;;;5092053;28;913;-46
2022/06/02 10:15:50;;;;;;;;;;;26.00;37.50;;;;;;5057580;28;1026;-46
2022/06/02 10:18:30;;;;;;;;;;;26.00;37.60;;;;;;5091512;28;1898;-43
2022/06/02 10:21:07;;;;;;;;;;;26.00;37.60;;;;;;5093282;28;980;-46
2022/06/02 10:23:50;;;;;;;;;;;26.00;37.50;;;;;;5096464;28;1026;-43
2022/06/02 10:26:21;;;;;;;;;;;26.00;37.50;;;;;;5096199;28;968;-46
2022/06/02 10:28:59;;;;;;;;;;;26.00;37.50;;;;;;5095413;28;1016;-44
2022/06/02 10:31:43;;;;;;;;;;;25.90;37.40;;;;;;5096062;28;911;-44
2022/06/02 10:34:29;;;;;;;;;;;26.00;37.50;;;;;;5053417;28;1122;-45
2022/06/02 10:37:14;;;;;;;;;;;26.00;37.50;;;;;;5096062;28;1898;-46
2022/06/02 10:39:54;;;;;;;;;;;25.90;37.50;;;;;;5081263;28;1150;-44
2022/06/02 10:42:32;;;;;;;;;;;26.00;37.50;;;;;;5095836;28;995;-44
2022/06/02 10:45:10;;;;;;;;;;;26.00;37.50;;;;;;5094815;28;1899;-43
2022/06/02 10:47:51;;;;;;;;;;;26.00;37.40;;;;;;5094330;28;1000;-44
2022/06/02 10:50:23;;;;;;;;;;;26.00;37.50;;;;;;5094982;28;940;-44
2022/06/02 10:53:06;;;;;;;;;;;26.00;37.40;;;;;;5095426;28;1015;-44
2022/06/02 10:55:48;;;;;;;;;;;26.00;37.50;;;;;;5093694;28;948;-44
2022/06/02 10:58:48;;;;;;;;;;;26.00;37.40;;;;;;5095681;28;2074;-45
2022/06/02 11:01:31;;;;;;;;;;;26.00;37.50;;;;;;5096364;28;925;-46
2022/06/02 11:04:16;;;;;;;;;;;26.00;37.50;;;;;;5093973;28;1093;-44
2022/06/02 11:07:06;;;;;;;;;;;26.00;37.50;;;;;;5091438;28;1700;-44
2022/06/02 11:09:57;;;;;;;;;;;26.00;37.70;;;;;;5092882;28;956;-44
2022/06/02 11:12:42;;;;;;;;;;;26.00;37.60;;;;;;5093027;28;1004;-44
2022/06/02 11:15:35;;;;;;;;;;;26.00;37.60;;;;;;5093167;28;1019;-44
2022/06/02 11:18:20;;;;;;;;;;;26.00;37.60;;;;;;5092990;28;1910;-43
2022/06/02 11:21:00;;;;;;;;;;;26.00;37.50;;;;;;5093241;28;992;-44
2022/06/02 11:23:40;;;;;;;;;;;26.00;37.50;;;;;;5093133;28;991;-44
2022/06/02 11:26:25;;;;;;;;;;;26.00;37.50;;;;;;5093768;28;1035;-44
2022/06/02 11:29:12;;;;;;;;;;;26.00;37.60;;;;;;5093968;28;1043;-44
2022/06/02 11:31:57;;;;;;;;;;;26.00;37.50;;;;;;5093474;28;952;-43
2022/06/02 11:34:33;;;;;;;;;;;26.00;38.70;;;;;;5080280;28;1553;-44
2022/06/02 11:37:26;;;;;;;;;;;26.00;37.50;;;;;;5092509;28;1988;-44
2022/06/02 11:40:07;;;;;;;;;;;26.00;37.50;;;;;;5045646;28;1244;-44
2022/06/02 11:42:56;;;;;;;;;;;26.10;37.60;;;;;;5092587;28;948;-44
2022/06/02 11:45:33;;;;;;;;;;;26.00;37.60;;;;;;5092394;28;968;-44
2022/06/02 11:48:23;;;;;;;;;;;26.00;37.60;;;;;;5093002;28;1003;-44
2022/06/02 11:51:08;;;;;;;;;;;26.10;37.70;;;;;;5092285;28;1019;-44
2022/06/02 11:53:53;;;;;;;;;;;26.10;37.70;;;;;;5091940;28;949;-44
2022/06/02 11:56:29;;;;;;;;;;;26.10;37.70;;;;;;5092602;28;976;-44
2022/06/02 11:59:06;;;;;;;;;;;26.10;37.60;;;;;;5092946;28;1995;-44
2022/06/02 12:01:57;;;;;;;;;;;26.10;37.60;;;;;;5092032;28;948;-42
2022/06/02 12:04:31;;;;;;;;;;;26.10;37.70;;;;;;5072157;28;1359;-44
2022/06/02 12:07:05;;;;;;;;;;;26.00;37.60;;;;;;5091501;28;899;-44
2022/06/02 12:09:47;;;;;;;;;;;26.10;37.70;;;;;;5092473;28;1120;-43
2022/06/02 12:12:31;;;;;;;;;;;26.10;37.70;;;;;;5093856;28;872;-44
2022/06/02 12:15:12;;;;;;;;;;;26.00;37.60;;;;;;5052439;28;1044;-44
2022/06/02 12:17:56;;;;;;;;;;;26.10;37.70;;;;;;5053381;28;1913;-44
2022/06/02 12:20:29;;;;;;;;;;;26.10;37.70;;;;;;5052385;28;1820;-45
2022/06/02 12:23:09;;;;;;;;;;;26.10;37.70;;;;;;5052829;28;998;-43
2022/06/02 12:25:49;;;;;;;;;;;26.10;37.70;;;;;;5052166;28;937;-44
2022/06/02 12:28:39;;;;;;;;;;;26.10;37.70;;;;;;5051535;28;1011;-44
2022/06/02 12:31:24;;;;;;;;;;;26.10;37.70;;;;;;5053229;28;933;-44
2022/06/02 12:34:06;;;;;;;;;;;26.10;37.60;;;;;;5052626;28;936;-44
2022/06/02 12:36:46;;;;;;;;;;;26.10;37.60;;;;;;5052823;28;1024;-44
2022/06/02 12:39:32;;;;;;;;;;;26.10;37.70;;;;;;5052866;28;1913;-44
2022/06/02 12:42:21;;;;;;;;;;;26.10;37.60;;;;;;5052762;28;999;-44
2022/06/02 12:45:02;;;;;;;;;;;26.10;37.60;;;;;;5052940;28;1113;-44
2022/06/02 12:47:48;;;;;;;;;;;26.10;37.70;;;;;;5052777;28;1098;-44
2022/06/02 12:50:41;;;;;;;;;;;26.10;37.70;;;;;;5053181;28;944;-44
2022/06/02 12:53:31;;;;;;;;;;;26.10;37.70;;;;;;5017060;28;1010;-44
2022/06/02 12:56:15;;;;;;;;;;;26.10;37.70;;;;;;5052089;28;964;-44
2022/06/02 12:59:06;;;;;;;;;;;26.20;37.80;;;;;;5041998;28;1985;-44
2022/06/02 13:01:50;;;;;;;;;;;26.10;37.80;;;;;;5052206;28;965;-43
2022/06/02 13:04:35;;;;;;;;;;;26.20;37.80;;;;;;5052265;28;1014;-44
2022/06/02 13:07:29;;;;;;;;;;;26.10;37.70;;;;;;5051725;28;1554;-44
2022/06/02 13:10:10;;;;;;;;;;;26.20;37.80;;;;;;5053007;28;912;-44
2022/06/02 13:12:56;;;;;;;;;;;26.20;37.80;;;;;;5054683;28;1052;-45
2022/06/02 13:15:37;;;;;;;;;;;26.20;37.80;;;;;;5092637;28;1004;-44
2022/06/02 13:18:18;;;;;;;;;;;26.20;37.80;;;;;;5092685;28;1905;-44
2022/06/02 13:21:00;;;;;;;;;;;26.20;37.80;;;;;;5089312;28;2332;-44
2022/06/02 13:23:50;;;;;;;;;;;26.20;38.00;;;;;;5092223;28;965;-44
2022/06/02 13:26:26;;;;;;;;;;;26.20;37.90;;;;;;5092466;28;971;-45
2022/06/02 13:29:05;;;;;;;;;;;26.10;37.80;;;;;;5092463;28;1217;-44
2022/06/02 13:31:43;;;;;;;;;;;26.20;38.00;;;;;;5091974;28;924;-43
2022/06/02 13:34:27;;;;;;;;;;;26.20;38.00;;;;;;5091427;28;1475;-44
2022/06/02 13:37:02;;;;;;;;;;;26.10;37.80;;;;;;5092358;28;992;-44
2022/06/02 13:39:41;;;;;;;;;;;26.20;38.00;;;;;;5092537;28;1898;-43
2022/06/02 13:42:38;;;;;;;;;;;26.20;38.00;;;;;;5091672;28;995;-43
2022/06/02 13:45:20;;;;;;;;;;;26.20;38.00;;;;;;5092464;28;992;-44
2022/06/02 13:48:06;;;;;;;;;;;26.20;38.10;;;;;;5073710;28;1440;-44
2022/06/02 13:50:38;;;;;;;;;;;26.40;37.80;;;;;;5089712;28;1055;-45
2022/06/02 13:53:32;;;;;;;;;;;26.40;37.90;;;;;;5091716;28;1253;-46
2022/06/02 13:59:17;;;;;;;;;;;26.40;38.00;;;;;;5095527;28;1910;-46
2022/06/02 14:02:05;;;;;;;;;;;26.40;38.20;;;;;;5095249;28;1261;-40
2022/06/02 14:04:53;;;;;;;;;;;26.40;38.10;;;;;;5088794;28;1421;-41
2022/06/02 14:07:28;;;;;;;;;;;26.40;38.10;;;;;;5089273;28;1378;-41
2022/06/02 14:10:00;;;;;;;;;;;26.40;38.10;;;;;;5096158;28;1153;-40
2022/06/02 14:12:36;;;;;;;;;;;26.40;38.10;;;;;;5095368;28;1025;-41
2022/06/02 14:15:23;;;;;;;;;;;26.50;38.00;;;;;;5054372;28;988;-42
2022/06/02 14:18:05;;;;;;;;;;;26.50;38.00;;;;;;5054440;28;1976;-42
2022/06/02 14:20:35;;;;;;;;;;;26.50;37.90;;;;;;5040287;28;1401;-42
2022/06/02 14:23:09;;;;;;;;;;;26.60;37.90;;;;;;5054755;28;1016;-41
2022/06/02 14:25:43;;;;;;;;;;;26.60;37.90;;;;;;5054007;28;1036;-40
2022/06/02 14:28:26;;;;;;;;;;;26.60;37.90;;;;;;5054788;28;988;-42
2022/06/02 14:30:57;;;;;;;;;;;26.60;37.90;;;;;;5055194;28;945;-42
2022/06/02 14:33:27;;;;;;;;;;;26.70;37.90;;;;;;5054927;28;892;-41
2022/06/02 14:35:56;;;;;;;;;;;26.70;37.80;;;;;;5055319;28;854;-42
2022/06/02 14:38:38;;;;;;;;;;;26.70;37.80;;;;;;5039525;28;1981;-42
2022/06/02 14:41:07;;;;;;;;;;;26.70;37.70;;;;;;5032004;28;1417;-41
2022/06/02 14:43:56;;;;;;;;;;;26.70;37.80;;;;;;5034208;28;885;-41
2022/06/02 14:46:35;;;;;;;;;;;26.70;37.70;;;;;;5009130;28;1106;-40
2022/06/02 14:49:08;;;;;;;;;;;26.70;37.80;;;;;;5035720;28;1004;-41
2022/06/02 14:51:38;;;;;;;;;;;26.70;37.70;;;;;;5034914;28;1026;-42
2022/06/02 14:54:23;;;;;;;;;;;26.80;37.80;;;;;;5034380;28;1028;-46
2022/06/02 14:57:00;;;;;;;;;;;26.80;37.80;;;;;;5034347;28;1727;-45
2022/06/02 14:59:35;;;;;;;;;;;26.80;38.80;;;;;;5033248;28;1981;-45
2022/06/02 15:02:16;;;;;;;;;;;26.80;37.80;;;;;;5033853;28;1010;-45
2022/06/02 15:04:50;;;;;;;;;;;26.80;37.80;;;;;;5031976;28;1213;-45
2022/06/02 15:07:42;;;;;;;;;;;26.90;37.80;;;;;;5032385;28;956;-46
2022/06/02 15:10:32;;;;;;;;;;;27.00;37.80;;;;;;5032731;28;1003;-45
2022/06/02 15:13:18;;;;;;;;;;;27.00;37.70;;;;;;5025973;28;1536;-45
2022/06/02 15:15:59;;;;;;;;;;;27.00;37.60;;;;;;5073523;28;1007;-46
2022/06/02 15:18:42;;;;;;;;;;;27.10;37.60;;;;;;5073814;28;1979;-45
2022/06/02 15:21:15;;;;;;;;;;;27.10;37.70;;;;;;5074472;28;908;-45
2022/06/02 15:23:53;;;;;;;;;;;27.10;37.60;;;;;;5073335;28;1016;-46
2022/06/02 15:26:27;;;;;;;;;;;27.20;37.80;;;;;;5073374;28;936;-45
2022/06/02 15:29:07;;;;;;;;;;;27.30;37.40;;;;;;5073452;28;1440;-46
2022/06/02 15:31:38;;;;;;;;;;;27.40;37.10;;;;;;5074125;28;944;-46
2022/06/02 15:34:26;;;;;;;;;;;27.30;37.20;;;;;;5073533;28;917;-45
2022/06/02 15:37:03;;;;;;;;;;;27.30;38.10;;;;;;5072568;28;1033;-45
2022/06/02 15:39:47;;;;;;;;;;;27.30;37.60;;;;;;5073411;28;1983;-45
2022/06/02 15:42:24;;;;;;;;;;;27.30;37.60;;;;;;5074123;28;919;-36
2022/06/02 15:45:09;;;;;;;;;;;27.40;38.20;;;;;;5073184;28;1012;-44
2022/06/02 15:48:03;;;;;;;;;;;27.40;37.80;;;;;;5073249;28;952;-45
2022/06/02 15:50:55;;;;;;;;;;;27.40;38.90;;;;;;5074075;28;925;-45